Conakry, Guinea
Current Conditions -  °F | °C
As of 3:00 PM on Saturday 20 Dec 2014 (Local Time) from GUCY Reporting Station
Haze Haze  
Wind Chill: 90°   Ceiling: Unl
Heat Index: 92°   Visibility: 3mi
Dew Point: 66°   Wind: 9mph
Humidity: 46%   Direction: 220°SW
Pressure: 29.85"   Gusts: NA
Location:  9.55°N, 13.67°W
Report Text: GUCY 201500Z 22008KT 5000 HZ NSC 32/19 Q1011 NOSIG
Loading
Personal Weather Stations






























Interactive Weather Map New forecast layout! Learn more

10-Day Weather Forecast

Advertisements
Track Severe Weather on mobile